sensor_id;sensor_type;location;lat;lon;timestamp;temperature;humidity
7016;DHT22;3548;48.402;9.990;2024-02-21T00:00:10;5.30;99.90
7016;DHT22;3548;48.402;9.990;2024-02-21T00:02:37;5.30;99.90
7016;DHT22;3548;48.402;9.990;2024-02-21T00:05:02;5.30;99.90
7016;DHT22;3548;48.402;9.990;2024-02-21T00:07:28;5.30;99.90
7016;DHT22;3548;48.402;9.990;2024-02-21T00:09:53;5.30;99.90
7016;DHT22;3548;48.402;9.990;2024-02-21T00:12:19;5.30;99.90
7016;DHT22;3548;48.402;9.990;2024-02-21T00:14:45;5.20;99.90
7016;DHT22;3548;48.402;9.990;2024-02-21T00:17:10;5.20;99.90
7016;DHT22;3548;48.402;9.990;2024-02-21T00:19:36;5.20;99.90
7016;DHT22;3548;48.402;9.990;2024-02-21T00:22:01;5.10;99.90
7016;DHT22;3548;48.402;9.990;2024-02-21T00:24:27;5.10;99.90
7016;DHT22;3548;48.402;9.990;2024-02-21T00:26:53;5.10;99.90
7016;DHT22;3548;48.402;9.990;2024-02-21T00:29:19;5.10;99.90
7016;DHT22;3548;48.402;9.990;2024-02-21T00:31:44;5.10;99.90
7016;DHT22;3548;48.402;9.990;2024-02-21T00:34:10;5.10;99.90
7016;DHT22;3548;48.402;9.990;2024-02-21T00:36:37;5.10;99.90
7016;DHT22;3548;48.402;9.990;2024-02-21T00:39:03;5.00;99.90
7016;DHT22;3548;48.402;9.990;2024-02-21T00:41:28;5.00;99.90
7016;DHT22;3548;48.402;9.990;2024-02-21T00:43:54;5.10;99.90
7016;DHT22;3548;48.402;9.990;2024-02-21T00:46:19;5.10;99.90
7016;DHT22;3548;48.402;9.990;2024-02-21T00:48:45;5.10;99.90
7016;DHT22;3548;48.402;9.990;2024-02-21T00:51:10;5.10;99.90
7016;DHT22;3548;48.402;9.990;2024-02-21T00:53:36;5.10;99.90
7016;DHT22;3548;48.402;9.990;2024-02-21T00:56:04;5.10;99.90
7016;DHT22;3548;48.402;9.990;2024-02-21T00:58:30;5.10;99.90
7016;DHT22;3548;48.402;9.990;2024-02-21T01:00:56;5.10;99.90
7016;DHT22;3548;48.402;9.990;2024-02-21T01:03:21;5.10;99.90
7016;DHT22;3548;48.402;9.990;2024-02-21T01:05:47;5.20;99.90
7016;DHT22;3548;48.402;9.990;2024-02-21T01:08:12;5.10;99.90
7016;DHT22;3548;48.402;9.990;2024-02-21T01:10:38;5.10;99.90
7016;DHT22;3548;48.402;9.990;2024-02-21T01:13:03;5.10;99.90
7016;DHT22;3548;48.402;9.990;2024-02-21T01:15:29;5.10;99.90
7016;DHT22;3548;48.402;9.990;2024-02-21T01:17:54;5.00;99.90
7016;DHT22;3548;48.402;9.990;2024-02-21T01:20:21;4.90;99.90
7016;DHT22;3548;48.402;9.990;2024-02-21T01:22:46;4.90;99.90
7016;DHT22;3548;48.402;9.990;2024-02-21T01:25:12;4.90;99.90
7016;DHT22;3548;48.402;9.990;2024-02-21T01:27:37;4.80;99.90
7016;DHT22;3548;48.402;9.990;2024-02-21T01:30:04;4.80;99.90
7016;DHT22;3548;48.402;9.990;2024-02-21T01:32:29;4.80;99.90
7016;DHT22;3548;48.402;9.990;2024-02-21T01:34:55;4.80;99.90
7016;DHT22;3548;48.402;9.990;2024-02-21T01:37:20;4.80;99.90
7016;DHT22;3548;48.402;9.990;2024-02-21T01:39:46;4.80;99.90
7016;DHT22;3548;48.402;9.990;2024-02-21T01:42:12;4.90;99.90
7016;DHT22;3548;48.402;9.990;2024-02-21T01:44:37;4.90;99.90
7016;DHT22;3548;48.402;9.990;2024-02-21T01:47:03;4.90;99.90
7016;DHT22;3548;48.402;9.990;2024-02-21T01:49:29;4.90;99.90
7016;DHT22;3548;48.402;9.990;2024-02-21T01:51:55;4.90;99.90
7016;DHT22;3548;48.402;9.990;2024-02-21T01:54:21;4.90;99.90
7016;DHT22;3548;48.402;9.990;2024-02-21T01:56:47;4.90;99.90
7016;DHT22;3548;48.402;9.990;2024-02-21T01:59:15;5.00;99.90
7016;DHT22;3548;48.402;9.990;2024-02-21T02:01:41;4.90;99.90
7016;DHT22;3548;48.402;9.990;2024-02-21T02:04:07;4.90;99.90
7016;DHT22;3548;48.402;9.990;2024-02-21T02:06:33;4.90;99.90
7016;DHT22;3548;48.402;9.990;2024-02-21T02:08:59;4.90;99.90
7016;DHT22;3548;48.402;9.990;2024-02-21T02:11:25;4.90;99.90
7016;DHT22;3548;48.402;9.990;2024-02-21T02:13:51;4.90;99.90
7016;DHT22;3548;48.402;9.990;2024-02-21T02:16:16;4.90;99.90
7016;DHT22;3548;48.402;9.990;2024-02-21T02:18:42;4.90;99.90
7016;DHT22;3548;48.402;9.990;2024-02-21T02:21:13;5.00;99.90
7016;DHT22;3548;48.402;9.990;2024-02-21T02:23:42;5.00;99.90
7016;DHT22;3548;48.402;9.990;2024-02-21T02:26:08;5.00;99.90
7016;DHT22;3548;48.402;9.990;2024-02-21T02:28:33;5.00;99.90
7016;DHT22;3548;48.402;9.990;2024-02-21T02:30:59;5.00;99.90
7016;DHT22;3548;48.402;9.990;2024-02-21T02:33:24;4.90;99.90
7016;DHT22;3548;48.402;9.990;2024-02-21T02:35:50;4.90;99.90
7016;DHT22;3548;48.402;9.990;2024-02-21T02:38:15;4.90;99.90
7016;DHT22;3548;48.402;9.990;2024-02-21T02:40:41;5.00;99.90
7016;DHT22;3548;48.402;9.990;2024-02-21T02:43:07;4.90;99.90
7016;DHT22;3548;48.402;9.990;2024-02-21T02:45:33;4.90;99.90
7016;DHT22;3548;48.402;9.990;2024-02-21T02:47:59;4.90;99.90
7016;DHT22;3548;48.402;9.990;2024-02-21T02:50:25;4.80;99.90
7016;DHT22;3548;48.402;9.990;2024-02-21T02:52:51;4.80;99.90
7016;DHT22;3548;48.402;9.990;2024-02-21T02:55:17;4.80;99.90
7016;DHT22;3548;48.402;9.990;2024-02-21T02:57:42;4.90;99.90
7016;DHT22;3548;48.402;9.990;2024-02-21T03:00:10;4.80;99.90
7016;DHT22;3548;48.402;9.990;2024-02-21T03:02:38;4.90;99.90
7016;DHT22;3548;48.402;9.990;2024-02-21T03:05:12;4.90;99.90
7016;DHT22;3548;48.402;9.990;2024-02-21T03:07:38;4.90;99.90
7016;DHT22;3548;48.402;9.990;2024-02-21T03:10:04;5.00;99.90
7016;DHT22;3548;48.402;9.990;2024-02-21T03:12:29;5.00;99.90
7016;DHT22;3548;48.402;9.990;2024-02-21T03:14:55;4.90;99.90
7016;DHT22;3548;48.402;9.990;2024-02-21T03:17:21;4.90;99.90
7016;DHT22;3548;48.402;9.990;2024-02-21T03:19:46;4.90;99.90
7016;DHT22;3548;48.402;9.990;2024-02-21T03:22:13;4.80;99.90
7016;DHT22;3548;48.402;9.990;2024-02-21T03:24:39;4.80;99.90
7016;DHT22;3548;48.402;9.990;2024-02-21T03:27:04;4.80;99.90
7016;DHT22;3548;48.402;9.990;2024-02-21T03:29:30;4.80;99.90
7016;DHT22;3548;48.402;9.990;2024-02-21T03:31:55;4.80;99.90
7016;DHT22;3548;48.402;9.990;2024-02-21T03:34:21;4.70;99.90
7016;DHT22;3548;48.402;9.990;2024-02-21T03:36:46;4.70;99.90
7016;DHT22;3548;48.402;9.990;2024-02-21T03:39:12;4.70;99.90
7016;DHT22;3548;48.402;9.990;2024-02-21T03:41:37;4.70;99.90
7016;DHT22;3548;48.402;9.990;2024-02-21T03:44:03;4.70;99.90
7016;DHT22;3548;48.402;9.990;2024-02-21T03:46:30;4.70;99.90
7016;DHT22;3548;48.402;9.990;2024-02-21T03:48:57;4.70;99.90
7016;DHT22;3548;48.402;9.990;2024-02-21T03:51:22;4.70;99.90
7016;DHT22;3548;48.402;9.990;2024-02-21T03:53:48;4.70;99.90
7016;DHT22;3548;48.402;9.990;2024-02-21T03:56:13;4.70;99.90
7016;DHT22;3548;48.402;9.990;2024-02-21T03:58:39;4.70;99.90
7016;DHT22;3548;48.402;9.990;2024-02-21T04:01:04;4.80;99.90
7016;DHT22;3548;48.402;9.990;2024-02-21T04:03:30;4.80;99.90
7016;DHT22;3548;48.402;9.990;2024-02-21T04:05:56;4.70;99.90
7016;DHT22;3548;48.402;9.990;2024-02-21T04:08:22;4.70;99.90
7016;DHT22;3548;48.402;9.990;2024-02-21T04:10:48;4.70;99.90
7016;DHT22;3548;48.402;9.990;2024-02-21T04:13:13;4.70;99.90
7016;DHT22;3548;48.402;9.990;2024-02-21T04:15:39;4.70;99.90
7016;DHT22;3548;48.402;9.990;2024-02-21T04:18:05;4.70;99.90
7016;DHT22;3548;48.402;9.990;2024-02-21T04:20:30;4.70;99.90
7016;DHT22;3548;48.402;9.990;2024-02-21T04:22:56;4.70;99.90
7016;DHT22;3548;48.402;9.990;2024-02-21T04:25:22;4.80;99.90
7016;DHT22;3548;48.402;9.990;2024-02-21T04:27:48;4.80;99.90
7016;DHT22;3548;48.402;9.990;2024-02-21T04:30:13;4.80;99.90
7016;DHT22;3548;48.402;9.990;2024-02-21T04:32:39;4.80;99.90
7016;DHT22;3548;48.402;9.990;2024-02-21T04:35:06;4.80;99.90
7016;DHT22;3548;48.402;9.990;2024-02-21T04:37:32;4.80;99.90
7016;DHT22;3548;48.402;9.990;2024-02-21T04:39:58;4.80;99.90
7016;DHT22;3548;48.402;9.990;2024-02-21T04:42:23;4.80;99.90
7016;DHT22;3548;48.402;9.990;2024-02-21T04:44:49;4.90;99.90
7016;DHT22;3548;48.402;9.990;2024-02-21T04:47:14;4.90;99.90
7016;DHT22;3548;48.402;9.990;2024-02-21T04:49:40;5.00;99.90
7016;DHT22;3548;48.402;9.990;2024-02-21T04:52:05;5.00;99.90
7016;DHT22;3548;48.402;9.990;2024-02-21T04:54:31;5.00;99.90
7016;DHT22;3548;48.402;9.990;2024-02-21T04:56:56;5.00;99.90
7016;DHT22;3548;48.402;9.990;2024-02-21T04:59:22;5.00;99.90
7016;DHT22;3548;48.402;9.990;2024-02-21T05:01:47;5.10;99.90
7016;DHT22;3548;48.402;9.990;2024-02-21T05:04:13;5.10;99.90
7016;DHT22;3548;48.402;9.990;2024-02-21T05:06:39;5.10;99.90
7016;DHT22;3548;48.402;9.990;2024-02-21T05:09:06;5.10;99.90
7016;DHT22;3548;48.402;9.990;2024-02-21T05:11:32;5.10;99.90
7016;DHT22;3548;48.402;9.990;2024-02-21T05:13:57;5.10;99.90
7016;DHT22;3548;48.402;9.990;2024-02-21T05:16:23;5.00;99.90
7016;DHT22;3548;48.402;9.990;2024-02-21T05:18:48;5.00;99.90
7016;DHT22;3548;48.402;9.990;2024-02-21T05:21:14;5.00;99.90
7016;DHT22;3548;48.402;9.990;2024-02-21T05:23:39;4.90;99.90
7016;DHT22;3548;48.402;9.990;2024-02-21T05:26:05;4.90;99.90
7016;DHT22;3548;48.402;9.990;2024-02-21T05:28:31;4.80;99.90
7016;DHT22;3548;48.402;9.990;2024-02-21T05:30:57;4.80;99.90
7016;DHT22;3548;48.402;9.990;2024-02-21T05:33:22;4.80;99.90
7016;DHT22;3548;48.402;9.990;2024-02-21T05:35:48;4.80;99.90
7016;DHT22;3548;48.402;9.990;2024-02-21T05:38:16;4.70;99.90
7016;DHT22;3548;48.402;9.990;2024-02-21T05:40:42;4.60;99.90
7016;DHT22;3548;48.402;9.990;2024-02-21T05:43:08;4.60;99.90
7016;DHT22;3548;48.402;9.990;2024-02-21T05:45:34;4.60;99.90
7016;DHT22;3548;48.402;9.990;2024-02-21T05:48:00;4.50;99.90
7016;DHT22;3548;48.402;9.990;2024-02-21T05:50:26;4.50;99.90
7016;DHT22;3548;48.402;9.990;2024-02-21T05:52:54;4.50;99.90
7016;DHT22;3548;48.402;9.990;2024-02-21T05:55:20;4.40;99.90
7016;DHT22;3548;48.402;9.990;2024-02-21T05:57:46;4.50;99.90
7016;DHT22;3548;48.402;9.990;2024-02-21T06:00:12;4.50;99.90
7016;DHT22;3548;48.402;9.990;2024-02-21T06:02:38;4.50;99.90
7016;DHT22;3548;48.402;9.990;2024-02-21T06:05:03;4.50;99.90
7016;DHT22;3548;48.402;9.990;2024-02-21T06:07:33;4.50;99.90
7016;DHT22;3548;48.402;9.990;2024-02-21T06:09:59;4.50;99.90
7016;DHT22;3548;48.402;9.990;2024-02-21T06:12:24;4.50;99.90
7016;DHT22;3548;48.402;9.990;2024-02-21T06:14:50;4.60;99.90
7016;DHT22;3548;48.402;9.990;2024-02-21T06:17:15;4.60;99.90
7016;DHT22;3548;48.402;9.990;2024-02-21T06:19:43;4.60;99.90
7016;DHT22;3548;48.402;9.990;2024-02-21T06:22:08;4.60;99.90
7016;DHT22;3548;48.402;9.990;2024-02-21T06:24:37;4.70;99.90
7016;DHT22;3548;48.402;9.990;2024-02-21T06:27:06;4.60;99.90
7016;DHT22;3548;48.402;9.990;2024-02-21T06:29:34;4.60;99.90
7016;DHT22;3548;48.402;9.990;2024-02-21T06:32:00;4.60;99.90
7016;DHT22;3548;48.402;9.990;2024-02-21T06:34:26;4.60;99.90
7016;DHT22;3548;48.402;9.990;2024-02-21T06:36:52;4.60;99.90
7016;DHT22;3548;48.402;9.990;2024-02-21T06:39:17;4.60;99.90
7016;DHT22;3548;48.402;9.990;2024-02-21T06:41:43;4.70;99.90
7016;DHT22;3548;48.402;9.990;2024-02-21T06:44:09;4.70;99.90
7016;DHT22;3548;48.402;9.990;2024-02-21T06:46:34;4.70;99.90
7016;DHT22;3548;48.402;9.990;2024-02-21T06:49:01;4.80;99.90
7016;DHT22;3548;48.402;9.990;2024-02-21T06:51:27;4.90;99.90
7016;DHT22;3548;48.402;9.990;2024-02-21T06:53:53;4.80;99.90
7016;DHT22;3548;48.402;9.990;2024-02-21T06:56:19;4.90;99.90
7016;DHT22;3548;48.402;9.990;2024-02-21T06:58:45;5.00;99.90
7016;DHT22;3548;48.402;9.990;2024-02-21T07:01:11;5.00;99.90
7016;DHT22;3548;48.402;9.990;2024-02-21T07:03:36;5.10;99.90
7016;DHT22;3548;48.402;9.990;2024-02-21T07:06:03;5.20;99.90
7016;DHT22;3548;48.402;9.990;2024-02-21T07:08:28;5.30;99.90
7016;DHT22;3548;48.402;9.990;2024-02-21T07:10:54;5.40;99.90
7016;DHT22;3548;48.402;9.990;2024-02-21T07:13:20;5.40;99.90
7016;DHT22;3548;48.402;9.990;2024-02-21T07:15:47;5.50;99.90
7016;DHT22;3548;48.402;9.990;2024-02-21T07:18:13;5.50;99.90
7016;DHT22;3548;48.402;9.990;2024-02-21T07:20:38;5.60;99.90
7016;DHT22;3548;48.402;9.990;2024-02-21T07:23:07;5.60;99.90
7016;DHT22;3548;48.402;9.990;2024-02-21T07:25:32;5.70;99.90
7016;DHT22;3548;48.402;9.990;2024-02-21T07:27:58;5.80;99.90
7016;DHT22;3548;48.402;9.990;2024-02-21T07:30:23;5.80;99.90
7016;DHT22;3548;48.402;9.990;2024-02-21T07:32:50;5.90;99.90
7016;DHT22;3548;48.402;9.990;2024-02-21T07:35:16;5.90;99.90
7016;DHT22;3548;48.402;9.990;2024-02-21T07:37:41;5.90;99.90
7016;DHT22;3548;48.402;9.990;2024-02-21T07:40:12;6.00;99.90
7016;DHT22;3548;48.402;9.990;2024-02-21T07:42:38;6.00;99.90
7016;DHT22;3548;48.402;9.990;2024-02-21T07:45:04;6.10;99.90
7016;DHT22;3548;48.402;9.990;2024-02-21T07:47:29;6.20;99.90
7016;DHT22;3548;48.402;9.990;2024-02-21T07:49:55;6.30;99.90
7016;DHT22;3548;48.402;9.990;2024-02-21T07:52:21;6.30;99.90
7016;DHT22;3548;48.402;9.990;2024-02-21T07:54:46;6.40;99.90
7016;DHT22;3548;48.402;9.990;2024-02-21T07:57:12;6.40;99.90
7016;DHT22;3548;48.402;9.990;2024-02-21T07:59:37;6.40;99.90
7016;DHT22;3548;48.402;9.990;2024-02-21T08:02:03;6.50;99.90
7016;DHT22;3548;48.402;9.990;2024-02-21T08:04:32;6.60;99.90
7016;DHT22;3548;48.402;9.990;2024-02-21T08:06:57;6.70;99.90
7016;DHT22;3548;48.402;9.990;2024-02-21T08:09:26;6.80;99.90
7016;DHT22;3548;48.402;9.990;2024-02-21T08:11:53;6.90;99.90
7016;DHT22;3548;48.402;9.990;2024-02-21T08:14:19;7.00;99.90
7016;DHT22;3548;48.402;9.990;2024-02-21T08:16:45;7.10;99.90
7016;DHT22;3548;48.402;9.990;2024-02-21T08:19:11;7.10;99.90
7016;DHT22;3548;48.402;9.990;2024-02-21T08:21:36;7.20;99.90
7016;DHT22;3548;48.402;9.990;2024-02-21T08:24:02;7.30;99.90
7016;DHT22;3548;48.402;9.990;2024-02-21T08:26:27;7.30;99.90
7016;DHT22;3548;48.402;9.990;2024-02-21T08:28:58;7.40;99.90
7016;DHT22;3548;48.402;9.990;2024-02-21T08:31:25;7.40;99.90
7016;DHT22;3548;48.402;9.990;2024-02-21T08:33:57;7.50;99.90
7016;DHT22;3548;48.402;9.990;2024-02-21T08:36:31;7.50;99.90
7016;DHT22;3548;48.402;9.990;2024-02-21T08:38:57;7.50;99.90
7016;DHT22;3548;48.402;9.990;2024-02-21T08:41:24;7.40;99.90
7016;DHT22;3548;48.402;9.990;2024-02-21T08:43:53;7.40;99.90
7016;DHT22;3548;48.402;9.990;2024-02-21T08:46:20;7.40;99.90
7016;DHT22;3548;48.402;9.990;2024-02-21T08:48:50;7.40;99.90
7016;DHT22;3548;48.402;9.990;2024-02-21T08:51:17;7.40;99.90
7016;DHT22;3548;48.402;9.990;2024-02-21T08:53:44;7.50;99.90
7016;DHT22;3548;48.402;9.990;2024-02-21T08:56:09;7.60;99.90
7016;DHT22;3548;48.402;9.990;2024-02-21T08:58:36;7.70;99.90
7016;DHT22;3548;48.402;9.990;2024-02-21T09:01:03;7.80;99.90
7016;DHT22;3548;48.402;9.990;2024-02-21T09:03:31;7.90;99.90
7016;DHT22;3548;48.402;9.990;2024-02-21T09:05:57;8.00;99.90
7016;DHT22;3548;48.402;9.990;2024-02-21T09:08:23;8.10;99.90
7016;DHT22;3548;48.402;9.990;2024-02-21T09:10:49;8.10;99.90
7016;DHT22;3548;48.402;9.990;2024-02-21T09:13:15;8.20;99.90
7016;DHT22;3548;48.402;9.990;2024-02-21T09:15:41;8.20;99.90
7016;DHT22;3548;48.402;9.990;2024-02-21T09:18:07;8.30;99.90
7016;DHT22;3548;48.402;9.990;2024-02-21T09:20:33;8.40;99.90
7016;DHT22;3548;48.402;9.990;2024-02-21T09:22:58;8.40;99.90
7016;DHT22;3548;48.402;9.990;2024-02-21T09:25:24;8.40;99.90
7016;DHT22;3548;48.402;9.990;2024-02-21T09:27:49;8.50;99.90
7016;DHT22;3548;48.402;9.990;2024-02-21T09:30:17;8.50;99.90
7016;DHT22;3548;48.402;9.990;2024-02-21T09:32:43;8.50;99.90
7016;DHT22;3548;48.402;9.990;2024-02-21T09:35:08;8.50;99.90
7016;DHT22;3548;48.402;9.990;2024-02-21T09:37:34;8.60;99.90
7016;DHT22;3548;48.402;9.990;2024-02-21T09:39:59;8.70;99.90
7016;DHT22;3548;48.402;9.990;2024-02-21T09:42:40;8.70;99.90
7016;DHT22;3548;48.402;9.990;2024-02-21T09:47:44;8.70;99.90
7016;DHT22;3548;48.402;9.990;2024-02-21T09:50:15;8.70;99.90
7016;DHT22;3548;48.402;9.990;2024-02-21T09:52:43;8.70;99.90
7016;DHT22;3548;48.402;9.990;2024-02-21T09:55:09;8.60;99.90
7016;DHT22;3548;48.402;9.990;2024-02-21T09:57:37;8.60;99.90
7016;DHT22;3548;48.402;9.990;2024-02-21T10:00:05;8.60;99.90
7016;DHT22;3548;48.402;9.990;2024-02-21T10:02:33;8.70;99.90
7016;DHT22;3548;48.402;9.990;2024-02-21T10:04:59;8.80;99.90
7016;DHT22;3548;48.402;9.990;2024-02-21T10:07:24;8.90;99.90
7016;DHT22;3548;48.402;9.990;2024-02-21T10:10:03;8.90;99.90
7016;DHT22;3548;48.402;9.990;2024-02-21T10:12:29;8.90;99.90
7016;DHT22;3548;48.402;9.990;2024-02-21T10:15:05;8.90;99.90
7016;DHT22;3548;48.402;9.990;2024-02-21T10:17:32;8.80;99.90
7016;DHT22;3548;48.402;9.990;2024-02-21T10:20:08;8.80;99.90
7016;DHT22;3548;48.402;9.990;2024-02-21T10:22:34;8.90;99.90
7016;DHT22;3548;48.402;9.990;2024-02-21T10:25:08;8.90;99.90
7016;DHT22;3548;48.402;9.990;2024-02-21T10:27:34;9.00;99.90
7016;DHT22;3548;48.402;9.990;2024-02-21T10:29:59;9.00;99.90
7016;DHT22;3548;48.402;9.990;2024-02-21T10:32:25;9.20;99.90
7016;DHT22;3548;48.402;9.990;2024-02-21T10:41:36;9.40;99.90
7016;DHT22;3548;48.402;9.990;2024-02-21T10:44:05;9.50;99.90
7016;DHT22;3548;48.402;9.990;2024-02-21T10:46:34;9.60;99.90
7016;DHT22;3548;48.402;9.990;2024-02-21T10:49:12;9.70;99.90
7016;DHT22;3548;48.402;9.990;2024-02-21T10:51:43;9.90;99.90
7016;DHT22;3548;48.402;9.990;2024-02-21T10:56:44;10.10;99.90
7016;DHT22;3548;48.402;9.990;2024-02-21T10:59:12;10.20;99.90
7016;DHT22;3548;48.402;9.990;2024-02-21T11:01:38;10.30;99.90
7016;DHT22;3548;48.402;9.990;2024-02-21T11:04:08;10.50;99.80
7016;DHT22;3548;48.402;9.990;2024-02-21T11:06:40;10.40;99.70
7016;DHT22;3548;48.402;9.990;2024-02-21T11:09:08;10.50;99.50
7016;DHT22;3548;48.402;9.990;2024-02-21T11:11:44;10.60;99.10
7016;DHT22;3548;48.402;9.990;2024-02-21T11:14:20;10.60;99.20
7016;DHT22;3548;48.402;9.990;2024-02-21T11:16:46;10.60;98.80
7016;DHT22;3548;48.402;9.990;2024-02-21T11:19:28;10.60;99.00
7016;DHT22;3548;48.402;9.990;2024-02-21T11:21:58;10.70;99.00
7016;DHT22;3548;48.402;9.990;2024-02-21T11:24:31;10.70;98.80
7016;DHT22;3548;48.402;9.990;2024-02-21T11:27:14;10.80;98.60
7016;DHT22;3548;48.402;9.990;2024-02-21T11:29:47;10.90;97.90
7016;DHT22;3548;48.402;9.990;2024-02-21T11:32:15;10.80;97.80
7016;DHT22;3548;48.402;9.990;2024-02-21T11:34:41;10.80;97.80
7016;DHT22;3548;48.402;9.990;2024-02-21T11:37:17;10.70;97.80
7016;DHT22;3548;48.402;9.990;2024-02-21T11:39:43;10.70;97.60
7016;DHT22;3548;48.402;9.990;2024-02-21T11:42:09;10.80;97.40
7016;DHT22;3548;48.402;9.990;2024-02-21T11:44:36;10.70;97.00
7016;DHT22;3548;48.402;9.990;2024-02-21T11:47:08;10.80;97.20
7016;DHT22;3548;48.402;9.990;2024-02-21T11:49:38;10.80;97.40
7016;DHT22;3548;48.402;9.990;2024-02-21T11:52:07;10.90;97.50
7016;DHT22;3548;48.402;9.990;2024-02-21T11:54:40;10.90;96.90
7016;DHT22;3548;48.402;9.990;2024-02-21T11:57:05;10.90;96.70
7016;DHT22;3548;48.402;9.990;2024-02-21T11:59:31;11.00;96.70
7016;DHT22;3548;48.402;9.990;2024-02-21T12:02:01;10.90;96.80
7016;DHT22;3548;48.402;9.990;2024-02-21T12:04:28;10.90;97.10
7016;DHT22;3548;48.402;9.990;2024-02-21T12:06:57;11.00;97.00
7016;DHT22;3548;48.402;9.990;2024-02-21T12:09:23;11.10;96.80
7016;DHT22;3548;48.402;9.990;2024-02-21T12:12:03;11.10;97.00
7016;DHT22;3548;48.402;9.990;2024-02-21T12:14:31;11.20;97.10
7016;DHT22;3548;48.402;9.990;2024-02-21T12:16:57;11.20;96.80
7016;DHT22;3548;48.402;9.990;2024-02-21T12:19:23;11.20;96.80
7016;DHT22;3548;48.402;9.990;2024-02-21T12:21:49;11.20;96.70
7016;DHT22;3548;48.402;9.990;2024-02-21T12:26:53;11.20;96.30
7016;DHT22;3548;48.402;9.990;2024-02-21T12:29:22;11.20;96.60
7016;DHT22;3548;48.402;9.990;2024-02-21T12:31:50;11.30;96.80
7016;DHT22;3548;48.402;9.990;2024-02-21T12:34:16;11.40;96.70
7016;DHT22;3548;48.402;9.990;2024-02-21T12:36:43;11.50;96.50
7016;DHT22;3548;48.402;9.990;2024-02-21T12:39:12;11.50;96.30
7016;DHT22;3548;48.402;9.990;2024-02-21T12:41:38;11.50;96.50
7016;DHT22;3548;48.402;9.990;2024-02-21T12:44:05;11.60;96.70
7016;DHT22;3548;48.402;9.990;2024-02-21T12:46:34;11.70;96.40
7016;DHT22;3548;48.402;9.990;2024-02-21T12:49:03;11.80;96.20
7016;DHT22;3548;48.402;9.990;2024-02-21T12:51:30;12.00;96.20
7016;DHT22;3548;48.402;9.990;2024-02-21T12:53:56;12.10;95.80
7016;DHT22;3548;48.402;9.990;2024-02-21T12:56:22;12.30;95.30
7016;DHT22;3548;48.402;9.990;2024-02-21T12:58:48;12.30;94.80
7016;DHT22;3548;48.402;9.990;2024-02-21T13:01:16;12.30;94.60
7016;DHT22;3548;48.402;9.990;2024-02-21T13:03:42;12.30;94.70
7016;DHT22;3548;48.402;9.990;2024-02-21T13:06:08;12.30;94.70
7016;DHT22;3548;48.402;9.990;2024-02-21T13:08:36;12.30;94.70
7016;DHT22;3548;48.402;9.990;2024-02-21T13:11:02;12.30;94.70
7016;DHT22;3548;48.402;9.990;2024-02-21T13:13:28;12.30;93.90
7016;DHT22;3548;48.402;9.990;2024-02-21T13:15:53;12.20;93.70
7016;DHT22;3548;48.402;9.990;2024-02-21T13:18:19;12.30;93.90
7016;DHT22;3548;48.402;9.990;2024-02-21T13:20:45;12.30;94.00
7016;DHT22;3548;48.402;9.990;2024-02-21T13:23:11;12.40;93.50
7016;DHT22;3548;48.402;9.990;2024-02-21T13:25:38;12.40;93.20
7016;DHT22;3548;48.402;9.990;2024-02-21T13:28:04;12.30;93.40
7016;DHT22;3548;48.402;9.990;2024-02-21T13:30:31;12.20;93.50
7016;DHT22;3548;48.402;9.990;2024-02-21T13:32:59;12.10;93.90
7016;DHT22;3548;48.402;9.990;2024-02-21T13:35:25;12.10;94.00
7016;DHT22;3548;48.402;9.990;2024-02-21T13:37:53;12.00;93.70
7016;DHT22;3548;48.402;9.990;2024-02-21T13:40:19;12.00;93.20
7016;DHT22;3548;48.402;9.990;2024-02-21T13:42:44;11.90;93.40
7016;DHT22;3548;48.402;9.990;2024-02-21T13:45:10;11.90;93.70
7016;DHT22;3548;48.402;9.990;2024-02-21T13:47:36;12.00;93.60
7016;DHT22;3548;48.402;9.990;2024-02-21T13:50:05;12.00;93.60
7016;DHT22;3548;48.402;9.990;2024-02-21T13:52:34;12.00;93.70
7016;DHT22;3548;48.402;9.990;2024-02-21T13:55:00;12.20;93.60
7016;DHT22;3548;48.402;9.990;2024-02-21T13:57:25;12.20;93.30
7016;DHT22;3548;48.402;9.990;2024-02-21T13:59:51;12.20;93.00
7016;DHT22;3548;48.402;9.990;2024-02-21T14:02:16;12.10;92.80
7016;DHT22;3548;48.402;9.990;2024-02-21T14:04:42;12.10;92.40
7016;DHT22;3548;48.402;9.990;2024-02-21T14:07:08;12.10;91.80
7016;DHT22;3548;48.402;9.990;2024-02-21T14:09:34;12.10;91.50
7016;DHT22;3548;48.402;9.990;2024-02-21T14:12:00;12.10;91.50
7016;DHT22;3548;48.402;9.990;2024-02-21T14:14:25;12.10;91.40
7016;DHT22;3548;48.402;9.990;2024-02-21T14:16:51;12.20;91.40
7016;DHT22;3548;48.402;9.990;2024-02-21T14:19:16;12.30;90.90
7016;DHT22;3548;48.402;9.990;2024-02-21T14:21:47;12.20;90.60
7016;DHT22;3548;48.402;9.990;2024-02-21T14:24:12;12.20;90.70
7016;DHT22;3548;48.402;9.990;2024-02-21T14:26:38;12.20;90.70
7016;DHT22;3548;48.402;9.990;2024-02-21T14:29:06;12.10;90.40
7016;DHT22;3548;48.402;9.990;2024-02-21T14:31:32;12.20;90.70
7016;DHT22;3548;48.402;9.990;2024-02-21T14:33:58;12.10;90.70
7016;DHT22;3548;48.402;9.990;2024-02-21T14:36:23;12.20;90.90
7016;DHT22;3548;48.402;9.990;2024-02-21T14:38:50;12.20;91.00
7016;DHT22;3548;48.402;9.990;2024-02-21T14:41:17;12.10;90.90
7016;DHT22;3548;48.402;9.990;2024-02-21T14:43:42;12.10;90.90
7016;DHT22;3548;48.402;9.990;2024-02-21T14:46:08;12.10;91.20
7016;DHT22;3548;48.402;9.990;2024-02-21T14:48:34;12.00;91.20
7016;DHT22;3548;48.402;9.990;2024-02-21T14:51:00;12.00;91.30
7016;DHT22;3548;48.402;9.990;2024-02-21T14:53:26;12.00;91.60
7016;DHT22;3548;48.402;9.990;2024-02-21T14:55:51;11.90;91.50
7016;DHT22;3548;48.402;9.990;2024-02-21T14:58:17;11.90;91.60
7016;DHT22;3548;48.402;9.990;2024-02-21T15:00:46;11.90;91.80
7016;DHT22;3548;48.402;9.990;2024-02-21T15:03:16;11.80;91.80
7016;DHT22;3548;48.402;9.990;2024-02-21T15:05:45;11.80;91.90
7016;DHT22;3548;48.402;9.990;2024-02-21T15:08:11;11.90;92.10
7016;DHT22;3548;48.402;9.990;2024-02-21T15:10:37;11.90;92.30
7016;DHT22;3548;48.402;9.990;2024-02-21T15:13:03;11.90;92.30
7016;DHT22;3548;48.402;9.990;2024-02-21T15:15:29;11.80;92.30
7016;DHT22;3548;48.402;9.990;2024-02-21T15:17:54;11.80;92.50
7016;DHT22;3548;48.402;9.990;2024-02-21T15:20:20;11.80;92.60
7016;DHT22;3548;48.402;9.990;2024-02-21T15:22:46;11.80;92.80
7016;DHT22;3548;48.402;9.990;2024-02-21T15:25:12;11.80;92.90
7016;DHT22;3548;48.402;9.990;2024-02-21T15:27:44;11.80;92.90
7016;DHT22;3548;48.402;9.990;2024-02-21T15:30:11;11.80;93.10
7016;DHT22;3548;48.402;9.990;2024-02-21T15:32:38;11.80;93.10
7016;DHT22;3548;48.402;9.990;2024-02-21T15:35:04;11.80;93.10
7016;DHT22;3548;48.402;9.990;2024-02-21T15:37:33;11.80;93.30
7016;DHT22;3548;48.402;9.990;2024-02-21T15:39:59;11.70;93.20
7016;DHT22;3548;48.402;9.990;2024-02-21T15:42:26;11.70;93.30
7016;DHT22;3548;48.402;9.990;2024-02-21T15:44:51;11.70;93.60
7016;DHT22;3548;48.402;9.990;2024-02-21T15:47:17;11.70;93.60
7016;DHT22;3548;48.402;9.990;2024-02-21T15:49:44;11.70;93.70
7016;DHT22;3548;48.402;9.990;2024-02-21T15:52:10;11.70;93.70
7016;DHT22;3548;48.402;9.990;2024-02-21T15:54:39;11.60;93.70
7016;DHT22;3548;48.402;9.990;2024-02-21T15:57:04;11.50;93.70
7016;DHT22;3548;48.402;9.990;2024-02-21T15:59:32;11.50;93.60
7016;DHT22;3548;48.402;9.990;2024-02-21T16:02:00;11.40;93.60
7016;DHT22;3548;48.402;9.990;2024-02-21T16:04:29;11.30;93.80
7016;DHT22;3548;48.402;9.990;2024-02-21T16:06:57;11.30;93.90
7016;DHT22;3548;48.402;9.990;2024-02-21T16:09:27;11.20;94.00
7016;DHT22;3548;48.402;9.990;2024-02-21T16:11:56;11.10;94.10
7016;DHT22;3548;48.402;9.990;2024-02-21T16:14:21;11.00;94.30
7016;DHT22;3548;48.402;9.990;2024-02-21T16:16:48;11.00;94.40
7016;DHT22;3548;48.402;9.990;2024-02-21T16:19:14;10.90;94.60
7016;DHT22;3548;48.402;9.990;2024-02-21T16:21:40;10.90;94.80